sensor_id;sensor_type;location;lat;lon;timestamp;temperature;humidity
35325;DHT22;35135;47.510;19.036;2023-09-12T00:00:49;26.30;50.10
35325;DHT22;35135;47.510;19.036;2023-09-12T00:03:19;26.40;50.10
35325;DHT22;35135;47.510;19.036;2023-09-12T00:05:56;26.30;50.00
35325;DHT22;35135;47.510;19.036;2023-09-12T00:08:22;26.40;50.20
35325;DHT22;35135;47.510;19.036;2023-09-12T00:11:01;26.30;50.10
35325;DHT22;35135;47.510;19.036;2023-09-12T00:13:27;26.40;50.20
35325;DHT22;35135;47.510;19.036;2023-09-12T00:15:53;26.40;50.20
35325;DHT22;35135;47.510;19.036;2023-09-12T00:18:19;26.40;50.10
35325;DHT22;35135;47.510;19.036;2023-09-12T00:20:44;26.30;50.00
35325;DHT22;35135;47.510;19.036;2023-09-12T00:23:10;26.40;50.20
35325;DHT22;35135;47.510;19.036;2023-09-12T00:25:36;26.30;50.10
35325;DHT22;35135;47.510;19.036;2023-09-12T00:28:01;26.30;50.10
35325;DHT22;35135;47.510;19.036;2023-09-12T00:30:27;26.30;49.80
35325;DHT22;35135;47.510;19.036;2023-09-12T00:32:53;26.30;50.20
35325;DHT22;35135;47.510;19.036;2023-09-12T00:35:18;26.30;50.30
35325;DHT22;35135;47.510;19.036;2023-09-12T00:37:44;26.30;50.30
35325;DHT22;35135;47.510;19.036;2023-09-12T00:40:10;26.30;50.30
35325;DHT22;35135;47.510;19.036;2023-09-12T00:42:36;26.20;50.20
35325;DHT22;35135;47.510;19.036;2023-09-12T00:45:01;26.30;50.10
35325;DHT22;35135;47.510;19.036;2023-09-12T00:47:28;26.30;50.20
35325;DHT22;35135;47.510;19.036;2023-09-12T00:49:55;26.30;50.30
35325;DHT22;35135;47.510;19.036;2023-09-12T00:52:24;26.30;50.30
35325;DHT22;35135;47.510;19.036;2023-09-12T00:54:51;26.20;50.10
35325;DHT22;35135;47.510;19.036;2023-09-12T00:57:16;26.10;49.90
35325;DHT22;35135;47.510;19.036;2023-09-12T00:59:43;26.10;50.30
35325;DHT22;35135;47.510;19.036;2023-09-12T01:02:08;26.00;50.50
35325;DHT22;35135;47.510;19.036;2023-09-12T01:04:35;26.10;50.50
35325;DHT22;35135;47.510;19.036;2023-09-12T01:07:03;26.10;50.50
35325;DHT22;35135;47.510;19.036;2023-09-12T01:09:30;26.10;50.40
35325;DHT22;35135;47.510;19.036;2023-09-12T01:11:56;26.10;50.40
35325;DHT22;35135;47.510;19.036;2023-09-12T01:14:22;26.10;50.40
35325;DHT22;35135;47.510;19.036;2023-09-12T01:16:48;26.10;50.30
35325;DHT22;35135;47.510;19.036;2023-09-12T01:19:14;26.10;50.30
35325;DHT22;35135;47.510;19.036;2023-09-12T01:29:34;26.10;50.40
35325;DHT22;35135;47.510;19.036;2023-09-12T01:32:01;26.10;50.40
35325;DHT22;35135;47.510;19.036;2023-09-12T01:34:27;26.10;50.30
35325;DHT22;35135;47.510;19.036;2023-09-12T01:36:53;26.10;50.30
35325;DHT22;35135;47.510;19.036;2023-09-12T01:39:18;26.10;50.30
35325;DHT22;35135;47.510;19.036;2023-09-12T01:41:45;26.10;50.30
35325;DHT22;35135;47.510;19.036;2023-09-12T01:44:14;26.10;50.20
35325;DHT22;35135;47.510;19.036;2023-09-12T01:46:41;26.10;50.10
35325;DHT22;35135;47.510;19.036;2023-09-12T01:49:09;26.10;50.10
35325;DHT22;35135;47.510;19.036;2023-09-12T01:51:35;26.10;50.10
35325;DHT22;35135;47.510;19.036;2023-09-12T01:54:03;26.10;50.20
35325;DHT22;35135;47.510;19.036;2023-09-12T01:56:29;26.10;50.20
35325;DHT22;35135;47.510;19.036;2023-09-12T01:58:55;26.10;50.20
35325;DHT22;35135;47.510;19.036;2023-09-12T02:01:21;26.10;50.30
35325;DHT22;35135;47.510;19.036;2023-09-12T02:03:47;26.10;50.30
35325;DHT22;35135;47.510;19.036;2023-09-12T02:06:12;26.10;50.10
35325;DHT22;35135;47.510;19.036;2023-09-12T02:08:38;26.10;50.20
35325;DHT22;35135;47.510;19.036;2023-09-12T02:11:04;26.00;50.40
35325;DHT22;35135;47.510;19.036;2023-09-12T02:13:29;26.00;50.40
35325;DHT22;35135;47.510;19.036;2023-09-12T02:16:01;26.00;50.40
35325;DHT22;35135;47.510;19.036;2023-09-12T02:18:28;26.10;50.50
35325;DHT22;35135;47.510;19.036;2023-09-12T02:20:54;26.00;50.50
35325;DHT22;35135;47.510;19.036;2023-09-12T02:23:20;26.10;50.50
35325;DHT22;35135;47.510;19.036;2023-09-12T02:25:45;26.10;50.50
35325;DHT22;35135;47.510;19.036;2023-09-12T02:28:11;26.10;50.50
35325;DHT22;35135;47.510;19.036;2023-09-12T02:30:39;26.10;50.40
35325;DHT22;35135;47.510;19.036;2023-09-12T02:33:08;26.00;50.30
35325;DHT22;35135;47.510;19.036;2023-09-12T02:35:34;26.10;50.40
35325;DHT22;35135;47.510;19.036;2023-09-12T02:37:59;26.10;50.30
35325;DHT22;35135;47.510;19.036;2023-09-12T02:40:25;26.10;50.30
35325;DHT22;35135;47.510;19.036;2023-09-12T02:42:51;26.10;50.30
35325;DHT22;35135;47.510;19.036;2023-09-12T02:45:17;26.10;50.40
35325;DHT22;35135;47.510;19.036;2023-09-12T02:47:42;26.10;50.50
35325;DHT22;35135;47.510;19.036;2023-09-12T02:50:09;26.10;50.40
35325;DHT22;35135;47.510;19.036;2023-09-12T02:52:35;26.10;50.60
35325;DHT22;35135;47.510;19.036;2023-09-12T02:55:00;26.00;50.50
35325;DHT22;35135;47.510;19.036;2023-09-12T02:57:26;26.10;50.50
35325;DHT22;35135;47.510;19.036;2023-09-12T02:59:52;26.10;50.50
35325;DHT22;35135;47.510;19.036;2023-09-12T03:02:17;26.00;50.40
35325;DHT22;35135;47.510;19.036;2023-09-12T03:04:43;26.10;50.30
35325;DHT22;35135;47.510;19.036;2023-09-12T03:07:09;26.00;50.40
35325;DHT22;35135;47.510;19.036;2023-09-12T03:09:34;26.00;50.50
35325;DHT22;35135;47.510;19.036;2023-09-12T03:12:04;26.00;50.40
35325;DHT22;35135;47.510;19.036;2023-09-12T03:14:30;26.00;50.40
35325;DHT22;35135;47.510;19.036;2023-09-12T03:16:55;26.00;50.50
35325;DHT22;35135;47.510;19.036;2023-09-12T03:19:21;26.00;50.50
35325;DHT22;35135;47.510;19.036;2023-09-12T03:21:47;26.00;50.40
35325;DHT22;35135;47.510;19.036;2023-09-12T03:24:13;26.00;50.50
35325;DHT22;35135;47.510;19.036;2023-09-12T03:26:39;26.00;50.50
35325;DHT22;35135;47.510;19.036;2023-09-12T03:29:04;25.90;50.30
35325;DHT22;35135;47.510;19.036;2023-09-12T03:31:30;25.90;50.30
35325;DHT22;35135;47.510;19.036;2023-09-12T03:33:56;25.80;50.70
35325;DHT22;35135;47.510;19.036;2023-09-12T03:36:21;25.80;50.80
35325;DHT22;35135;47.510;19.036;2023-09-12T03:38:47;25.90;50.80
35325;DHT22;35135;47.510;19.036;2023-09-12T03:41:13;25.80;50.80
35325;DHT22;35135;47.510;19.036;2023-09-12T03:43:39;25.80;50.90
35325;DHT22;35135;47.510;19.036;2023-09-12T03:46:04;25.80;50.80
35325;DHT22;35135;47.510;19.036;2023-09-12T03:48:30;25.90;50.80
35325;DHT22;35135;47.510;19.036;2023-09-12T03:50:57;25.90;50.80
35325;DHT22;35135;47.510;19.036;2023-09-12T03:53:22;25.80;50.80
35325;DHT22;35135;47.510;19.036;2023-09-12T03:55:48;25.90;50.80
35325;DHT22;35135;47.510;19.036;2023-09-12T03:58:14;25.90;50.80
35325;DHT22;35135;47.510;19.036;2023-09-12T04:00:39;25.90;50.90
35325;DHT22;35135;47.510;19.036;2023-09-12T04:03:05;25.90;50.90
35325;DHT22;35135;47.510;19.036;2023-09-12T04:05:31;25.90;50.90
35325;DHT22;35135;47.510;19.036;2023-09-12T04:07:57;25.90;51.00
35325;DHT22;35135;47.510;19.036;2023-09-12T04:10:22;25.90;51.10
35325;DHT22;35135;47.510;19.036;2023-09-12T04:12:48;25.90;51.20
35325;DHT22;35135;47.510;19.036;2023-09-12T04:15:14;25.90;51.20
35325;DHT22;35135;47.510;19.036;2023-09-12T04:17:40;25.90;51.10
35325;DHT22;35135;47.510;19.036;2023-09-12T04:20:06;25.90;51.10
35325;DHT22;35135;47.510;19.036;2023-09-12T04:22:33;25.90;51.20
35325;DHT22;35135;47.510;19.036;2023-09-12T04:24:59;25.90;51.10
35325;DHT22;35135;47.510;19.036;2023-09-12T04:27:24;25.90;51.00
35325;DHT22;35135;47.510;19.036;2023-09-12T04:29:50;25.90;50.90
35325;DHT22;35135;47.510;19.036;2023-09-12T04:32:16;25.90;50.90
35325;DHT22;35135;47.510;19.036;2023-09-12T04:34:51;25.90;51.00
35325;DHT22;35135;47.510;19.036;2023-09-12T04:37:17;25.90;51.10
35325;DHT22;35135;47.510;19.036;2023-09-12T04:39:43;25.90;51.00
35325;DHT22;35135;47.510;19.036;2023-09-12T04:42:08;25.90;51.10
35325;DHT22;35135;47.510;19.036;2023-09-12T04:44:39;25.90;51.10
35325;DHT22;35135;47.510;19.036;2023-09-12T04:47:04;25.90;51.10
35325;DHT22;35135;47.510;19.036;2023-09-12T04:49:30;25.90;51.10
35325;DHT22;35135;47.510;19.036;2023-09-12T04:51:56;25.90;51.10
35325;DHT22;35135;47.510;19.036;2023-09-12T04:54:21;25.90;51.10
35325;DHT22;35135;47.510;19.036;2023-09-12T04:56:47;25.90;51.10
35325;DHT22;35135;47.510;19.036;2023-09-12T04:59:13;25.90;51.10
35325;DHT22;35135;47.510;19.036;2023-09-12T05:01:38;25.90;51.30
35325;DHT22;35135;47.510;19.036;2023-09-12T05:04:04;25.80;50.60
35325;DHT22;35135;47.510;19.036;2023-09-12T05:06:30;25.70;51.40
35325;DHT22;35135;47.510;19.036;2023-09-12T05:08:56;25.70;51.60
35325;DHT22;35135;47.510;19.036;2023-09-12T05:11:24;25.60;51.50
35325;DHT22;35135;47.510;19.036;2023-09-12T05:13:50;25.70;51.50
35325;DHT22;35135;47.510;19.036;2023-09-12T05:16:16;25.70;51.20
35325;DHT22;35135;47.510;19.036;2023-09-12T05:18:42;25.70;50.90
35325;DHT22;35135;47.510;19.036;2023-09-12T05:21:08;25.70;50.80
35325;DHT22;35135;47.510;19.036;2023-09-12T05:23:33;25.70;50.80
35325;DHT22;35135;47.510;19.036;2023-09-12T05:25:59;25.80;50.70
35325;DHT22;35135;47.510;19.036;2023-09-12T05:28:25;25.70;50.50
35325;DHT22;35135;47.510;19.036;2023-09-12T05:30:51;25.70;50.60
35325;DHT22;35135;47.510;19.036;2023-09-12T05:33:16;25.70;50.60
35325;DHT22;35135;47.510;19.036;2023-09-12T05:35:42;25.70;50.50
35325;DHT22;35135;47.510;19.036;2023-09-12T05:38:10;25.80;50.40
35325;DHT22;35135;47.510;19.036;2023-09-12T05:40:35;25.80;50.50
35325;DHT22;35135;47.510;19.036;2023-09-12T05:43:01;25.90;50.40
35325;DHT22;35135;47.510;19.036;2023-09-12T05:45:27;25.90;50.40
35325;DHT22;35135;47.510;19.036;2023-09-12T05:47:55;25.90;50.30
35325;DHT22;35135;47.510;19.036;2023-09-12T05:50:20;26.00;50.20
35325;DHT22;35135;47.510;19.036;2023-09-12T05:52:46;25.90;50.50
35325;DHT22;35135;47.510;19.036;2023-09-12T05:55:12;25.90;50.70
35325;DHT22;35135;47.510;19.036;2023-09-12T05:57:37;25.90;50.70
35325;DHT22;35135;47.510;19.036;2023-09-12T06:00:03;26.00;50.60
35325;DHT22;35135;47.510;19.036;2023-09-12T06:02:30;26.10;50.60
35325;DHT22;35135;47.510;19.036;2023-09-12T06:04:58;26.10;50.60
35325;DHT22;35135;47.510;19.036;2023-09-12T06:07:24;26.20;50.80
35325;DHT22;35135;47.510;19.036;2023-09-12T06:09:50;26.20;50.50
35325;DHT22;35135;47.510;19.036;2023-09-12T06:12:16;26.10;50.60
35325;DHT22;35135;47.510;19.036;2023-09-12T06:14:42;26.10;51.00
35325;DHT22;35135;47.510;19.036;2023-09-12T06:17:07;26.00;50.90
35325;DHT22;35135;47.510;19.036;2023-09-12T06:19:33;25.90;51.50
35325;DHT22;35135;47.510;19.036;2023-09-12T06:21:59;25.90;51.80
35325;DHT22;35135;47.510;19.036;2023-09-12T06:24:25;25.90;51.60
35325;DHT22;35135;47.510;19.036;2023-09-12T06:26:51;25.90;52.10
35325;DHT22;35135;47.510;19.036;2023-09-12T06:29:17;25.90;51.90
35325;DHT22;35135;47.510;19.036;2023-09-12T06:31:43;25.90;51.60
35325;DHT22;35135;47.510;19.036;2023-09-12T06:34:09;25.90;51.60
35325;DHT22;35135;47.510;19.036;2023-09-12T06:36:35;25.90;51.90
35325;DHT22;35135;47.510;19.036;2023-09-12T06:39:02;26.00;51.20
35325;DHT22;35135;47.510;19.036;2023-09-12T06:41:30;26.10;50.70
35325;DHT22;35135;47.510;19.036;2023-09-12T06:43:56;26.00;50.60
35325;DHT22;35135;47.510;19.036;2023-09-12T06:46:24;25.80;50.70
35325;DHT22;35135;47.510;19.036;2023-09-12T06:48:50;25.70;51.00
35325;DHT22;35135;47.510;19.036;2023-09-12T06:51:16;25.80;51.00
35325;DHT22;35135;47.510;19.036;2023-09-12T06:53:42;25.90;50.70
35325;DHT22;35135;47.510;19.036;2023-09-12T06:56:08;26.10;50.90
35325;DHT22;35135;47.510;19.036;2023-09-12T06:58:34;26.20;49.70
35325;DHT22;35135;47.510;19.036;2023-09-12T07:01:03;26.10;49.70
35325;DHT22;35135;47.510;19.036;2023-09-12T07:03:30;26.20;50.00
35325;DHT22;35135;47.510;19.036;2023-09-12T07:05:56;26.20;50.40
35325;DHT22;35135;47.510;19.036;2023-09-12T07:08:21;26.30;49.80
35325;DHT22;35135;47.510;19.036;2023-09-12T07:10:47;26.20;49.70
35325;DHT22;35135;47.510;19.036;2023-09-12T07:13:13;26.30;50.10
35325;DHT22;35135;47.510;19.036;2023-09-12T07:15:39;26.40;49.70
35325;DHT22;35135;47.510;19.036;2023-09-12T07:18:04;26.40;49.90
35325;DHT22;35135;47.510;19.036;2023-09-12T07:20:34;26.50;49.90
35325;DHT22;35135;47.510;19.036;2023-09-12T07:23:00;26.60;49.30
35325;DHT22;35135;47.510;19.036;2023-09-12T07:25:26;26.70;50.10
35325;DHT22;35135;47.510;19.036;2023-09-12T07:27:52;26.80;49.50
35325;DHT22;35135;47.510;19.036;2023-09-12T07:30:18;26.80;49.20
35325;DHT22;35135;47.510;19.036;2023-09-12T07:32:43;26.90;49.80
35325;DHT22;35135;47.510;19.036;2023-09-12T07:35:09;26.90;49.60
35325;DHT22;35135;47.510;19.036;2023-09-12T07:37:35;26.90;49.80
35325;DHT22;35135;47.510;19.036;2023-09-12T07:40:01;27.00;49.90
35325;DHT22;35135;47.510;19.036;2023-09-12T07:42:27;27.00;50.50
35325;DHT22;35135;47.510;19.036;2023-09-12T07:44:53;27.10;50.10
35325;DHT22;35135;47.510;19.036;2023-09-12T07:47:19;27.10;50.10
35325;DHT22;35135;47.510;19.036;2023-09-12T07:49:44;27.20;50.10
35325;DHT22;35135;47.510;19.036;2023-09-12T07:52:10;27.20;50.20
35325;DHT22;35135;47.510;19.036;2023-09-12T07:54:36;27.20;49.50
35325;DHT22;35135;47.510;19.036;2023-09-12T07:57:02;27.20;50.20
35325;DHT22;35135;47.510;19.036;2023-09-12T07:59:28;27.20;49.80
35325;DHT22;35135;47.510;19.036;2023-09-12T08:01:54;27.20;50.00
35325;DHT22;35135;47.510;19.036;2023-09-12T08:04:20;27.30;50.00
35325;DHT22;35135;47.510;19.036;2023-09-12T08:06:45;27.30;49.40
35325;DHT22;35135;47.510;19.036;2023-09-12T08:09:11;27.30;49.70
35325;DHT22;35135;47.510;19.036;2023-09-12T08:11:37;27.30;49.30
35325;DHT22;35135;47.510;19.036;2023-09-12T08:14:02;27.30;49.30
35325;DHT22;35135;47.510;19.036;2023-09-12T08:16:28;27.30;49.00
35325;DHT22;35135;47.510;19.036;2023-09-12T08:18:54;27.30;49.50
35325;DHT22;35135;47.510;19.036;2023-09-12T08:21:19;27.30;49.70
35325;DHT22;35135;47.510;19.036;2023-09-12T08:23:45;27.30;50.00
35325;DHT22;35135;47.510;19.036;2023-09-12T08:26:11;27.40;50.10
35325;DHT22;35135;47.510;19.036;2023-09-12T08:28:36;27.40;49.90
35325;DHT22;35135;47.510;19.036;2023-09-12T08:31:02;27.40;49.70
35325;DHT22;35135;47.510;19.036;2023-09-12T08:33:28;27.40;50.20
35325;DHT22;35135;47.510;19.036;2023-09-12T08:35:53;27.50;50.20
35325;DHT22;35135;47.510;19.036;2023-09-12T08:38:19;27.50;50.80
35325;DHT22;35135;47.510;19.036;2023-09-12T08:40:52;27.50;50.00
35325;DHT22;35135;47.510;19.036;2023-09-12T08:43:18;27.50;50.20
35325;DHT22;35135;47.510;19.036;2023-09-12T08:45:44;27.40;50.10
35325;DHT22;35135;47.510;19.036;2023-09-12T08:48:11;27.40;50.10
35325;DHT22;35135;47.510;19.036;2023-09-12T08:50:38;27.40;49.90
35325;DHT22;35135;47.510;19.036;2023-09-12T08:53:04;27.50;50.30
35325;DHT22;35135;47.510;19.036;2023-09-12T08:55:31;27.50;49.60
35325;DHT22;35135;47.510;19.036;2023-09-12T08:58:00;27.40;49.60
35325;DHT22;35135;47.510;19.036;2023-09-12T09:00:28;27.40;49.90
35325;DHT22;35135;47.510;19.036;2023-09-12T09:02:54;27.30;49.60
35325;DHT22;35135;47.510;19.036;2023-09-12T09:05:21;27.30;49.90
35325;DHT22;35135;47.510;19.036;2023-09-12T09:07:49;27.30;49.90
35325;DHT22;35135;47.510;19.036;2023-09-12T09:10:17;27.30;49.90
35325;DHT22;35135;47.510;19.036;2023-09-12T09:12:45;27.30;49.70
35325;DHT22;35135;47.510;19.036;2023-09-12T09:15:29;27.20;49.80
35325;DHT22;35135;47.510;19.036;2023-09-12T09:17:57;27.20;49.60
35325;DHT22;35135;47.510;19.036;2023-09-12T09:20:25;27.20;49.70
35325;DHT22;35135;47.510;19.036;2023-09-12T09:22:57;27.20;49.80
35325;DHT22;35135;47.510;19.036;2023-09-12T09:25:23;27.20;49.80
35325;DHT22;35135;47.510;19.036;2023-09-12T09:27:49;27.20;50.00
35325;DHT22;35135;47.510;19.036;2023-09-12T09:30:14;27.20;50.20
35325;DHT22;35135;47.510;19.036;2023-09-12T09:32:40;27.20;50.10
35325;DHT22;35135;47.510;19.036;2023-09-12T09:35:07;27.20;50.00
35325;DHT22;35135;47.510;19.036;2023-09-12T09:37:33;27.20;50.10
35325;DHT22;35135;47.510;19.036;2023-09-12T09:39:59;27.20;50.00
35325;DHT22;35135;47.510;19.036;2023-09-12T09:42:28;27.20;50.00
35325;DHT22;35135;47.510;19.036;2023-09-12T09:44:54;27.20;49.80
35325;DHT22;35135;47.510;19.036;2023-09-12T09:47:20;27.20;50.00
35325;DHT22;35135;47.510;19.036;2023-09-12T09:49:46;27.20;50.10
35325;DHT22;35135;47.510;19.036;2023-09-12T09:52:12;27.20;50.10
35325;DHT22;35135;47.510;19.036;2023-09-12T09:54:43;27.20;50.30
35325;DHT22;35135;47.510;19.036;2023-09-12T09:57:09;27.20;50.40
35325;DHT22;35135;47.510;19.036;2023-09-12T09:59:36;27.20;50.20
35325;DHT22;35135;47.510;19.036;2023-09-12T10:02:03;27.20;50.10
35325;DHT22;35135;47.510;19.036;2023-09-12T10:04:32;27.20;49.80
35325;DHT22;35135;47.510;19.036;2023-09-12T10:06:59;27.20;49.60
35325;DHT22;35135;47.510;19.036;2023-09-12T10:09:28;27.20;49.60
35325;DHT22;35135;47.510;19.036;2023-09-12T10:11:56;27.20;49.70
35325;DHT22;35135;47.510;19.036;2023-09-12T10:14:24;27.20;49.50
35325;DHT22;35135;47.510;19.036;2023-09-12T10:16:56;27.20;49.50
35325;DHT22;35135;47.510;19.036;2023-09-12T10:19:26;27.20;49.40
35325;DHT22;35135;47.510;19.036;2023-09-12T10:24:25;27.20;49.40
35325;DHT22;35135;47.510;19.036;2023-09-12T10:26:53;27.20;49.40
35325;DHT22;35135;47.510;19.036;2023-09-12T10:29:20;27.20;49.40
35325;DHT22;35135;47.510;19.036;2023-09-12T10:31:48;27.20;49.40
35325;DHT22;35135;47.510;19.036;2023-09-12T10:34:14;27.20;49.20
35325;DHT22;35135;47.510;19.036;2023-09-12T10:36:41;27.20;49.30
35325;DHT22;35135;47.510;19.036;2023-09-12T10:39:08;27.20;49.20
35325;DHT22;35135;47.510;19.036;2023-09-12T10:41:39;27.20;49.30
35325;DHT22;35135;47.510;19.036;2023-09-12T10:44:09;27.20;49.30
35325;DHT22;35135;47.510;19.036;2023-09-12T10:46:40;27.20;49.20
35325;DHT22;35135;47.510;19.036;2023-09-12T10:49:07;27.20;49.10
35325;DHT22;35135;47.510;19.036;2023-09-12T10:51:38;27.20;49.10
35325;DHT22;35135;47.510;19.036;2023-09-12T10:54:06;27.20;48.80
35325;DHT22;35135;47.510;19.036;2023-09-12T10:56:33;27.20;49.00
35325;DHT22;35135;47.510;19.036;2023-09-12T11:01:36;27.20;48.90
35325;DHT22;35135;47.510;19.036;2023-09-12T11:06:50;27.20;48.40
35325;DHT22;35135;47.510;19.036;2023-09-12T11:09:21;27.20;48.50
35325;DHT22;35135;47.510;19.036;2023-09-12T11:11:48;27.20;48.60
35325;DHT22;35135;47.510;19.036;2023-09-12T11:14:15;27.20;48.70
35325;DHT22;35135;47.510;19.036;2023-09-12T11:16:41;27.20;48.50
35325;DHT22;35135;47.510;19.036;2023-09-12T11:19:18;27.20;48.50
35325;DHT22;35135;47.510;19.036;2023-09-12T11:21:52;27.20;48.50
35325;DHT22;35135;47.510;19.036;2023-09-12T11:24:20;27.20;48.50
35325;DHT22;35135;47.510;19.036;2023-09-12T11:27:12;27.20;48.40
35325;DHT22;35135;47.510;19.036;2023-09-12T11:29:39;27.20;48.20
35325;DHT22;35135;47.510;19.036;2023-09-12T11:32:06;27.20;48.40
35325;DHT22;35135;47.510;19.036;2023-09-12T11:37:02;27.20;48.40
35325;DHT22;35135;47.510;19.036;2023-09-12T11:39:32;27.20;48.20
35325;DHT22;35135;47.510;19.036;2023-09-12T11:42:00;27.20;48.00
35325;DHT22;35135;47.510;19.036;2023-09-12T11:44:27;27.30;48.00
35325;DHT22;35135;47.510;19.036;2023-09-12T11:46:53;27.30;48.00
35325;DHT22;35135;47.510;19.036;2023-09-12T11:49:20;27.30;48.00
35325;DHT22;35135;47.510;19.036;2023-09-12T11:51:53;27.30;48.00
35325;DHT22;35135;47.510;19.036;2023-09-12T11:54:20;27.30;47.60
35325;DHT22;35135;47.510;19.036;2023-09-12T11:56:47;27.30;47.20
35325;DHT22;35135;47.510;19.036;2023-09-12T11:59:14;27.30;47.70
35325;DHT22;35135;47.510;19.036;2023-09-12T12:01:41;27.20;47.90
35325;DHT22;35135;47.510;19.036;2023-09-12T12:04:06;27.20;47.90
35325;DHT22;35135;47.510;19.036;2023-09-12T12:06:33;27.20;48.10
35325;DHT22;35135;47.510;19.036;2023-09-12T12:09:01;27.20;48.00
35325;DHT22;35135;47.510;19.036;2023-09-12T12:11:32;27.30;48.20
35325;DHT22;35135;47.510;19.036;2023-09-12T12:13:58;27.20;48.20
35325;DHT22;35135;47.510;19.036;2023-09-12T12:16:25;27.30;48.30
35325;DHT22;35135;47.510;19.036;2023-09-12T12:18:51;27.20;48.20
35325;DHT22;35135;47.510;19.036;2023-09-12T12:21:21;27.20;48.20
35325;DHT22;35135;47.510;19.036;2023-09-12T12:23:47;27.20;48.20
35325;DHT22;35135;47.510;19.036;2023-09-12T12:26:24;27.20;48.30
35325;DHT22;35135;47.510;19.036;2023-09-12T12:28:49;27.20;48.00
35325;DHT22;35135;47.510;19.036;2023-09-12T12:31:15;27.30;48.60
35325;DHT22;35135;47.510;19.036;2023-09-12T12:33:51;27.30;47.90
35325;DHT22;35135;47.510;19.036;2023-09-12T12:36:18;27.30;48.00
35325;DHT22;35135;47.510;19.036;2023-09-12T12:38:46;27.30;47.90
35325;DHT22;35135;47.510;19.036;2023-09-12T12:41:13;27.20;47.90
35325;DHT22;35135;47.510;19.036;2023-09-12T12:43:40;27.30;47.90
35325;DHT22;35135;47.510;19.036;2023-09-12T12:46:11;27.30;48.00
35325;DHT22;35135;47.510;19.036;2023-09-12T12:48:38;27.30;47.90
35325;DHT22;35135;47.510;19.036;2023-09-12T12:53:52;27.30;47.60
35325;DHT22;35135;47.510;19.036;2023-09-12T12:56:22;27.30;47.70
35325;DHT22;35135;47.510;19.036;2023-09-12T12:58:49;27.30;47.70
35325;DHT22;35135;47.510;19.036;2023-09-12T13:01:15;27.30;47.60
35325;DHT22;35135;47.510;19.036;2023-09-12T13:03:41;27.30;47.60
35325;DHT22;35135;47.510;19.036;2023-09-12T13:06:08;27.30;48.10
35325;DHT22;35135;47.510;19.036;2023-09-12T13:08:42;27.30;47.60
35325;DHT22;35135;47.510;19.036;2023-09-12T13:11:12;27.30;47.60
35325;DHT22;35135;47.510;19.036;2023-09-12T13:13:38;27.30;47.60
35325;DHT22;35135;47.510;19.036;2023-09-12T13:16:06;27.30;47.60
35325;DHT22;35135;47.510;19.036;2023-09-12T13:18:32;27.30;47.40
35325;DHT22;35135;47.510;19.036;2023-09-12T13:20:58;27.30;47.60
35325;DHT22;35135;47.510;19.036;2023-09-12T13:23:24;27.30;47.30
35325;DHT22;35135;47.510;19.036;2023-09-12T13:25:50;27.30;47.50
35325;DHT22;35135;47.510;19.036;2023-09-12T13:28:16;27.30;47.70
35325;DHT22;35135;47.510;19.036;2023-09-12T13:30:42;27.30;47.60
35325;DHT22;35135;47.510;19.036;2023-09-12T13:33:08;27.30;47.40
35325;DHT22;35135;47.510;19.036;2023-09-12T13:35:34;27.30;47.20
35325;DHT22;35135;47.510;19.036;2023-09-12T13:38:00;27.40;47.30
35325;DHT22;35135;47.510;19.036;2023-09-12T13:40:25;27.40;47.30
35325;DHT22;35135;47.510;19.036;2023-09-12T13:42:53;27.40;46.40
35325;DHT22;35135;47.510;19.036;2023-09-12T13:45:18;27.40;46.80
35325;DHT22;35135;47.510;19.036;2023-09-12T13:47:44;27.40;46.60
35325;DHT22;35135;47.510;19.036;2023-09-12T13:50:10;27.40;46.90
35325;DHT22;35135;47.510;19.036;2023-09-12T13:52:35;27.40;47.00
35325;DHT22;35135;47.510;19.036;2023-09-12T13:55:01;27.50;46.60
35325;DHT22;35135;47.510;19.036;2023-09-12T13:57:29;27.50;46.60
35325;DHT22;35135;47.510;19.036;2023-09-12T13:59:54;27.50;46.00
35325;DHT22;35135;47.510;19.036;2023-09-12T14:02:20;27.50;46.60
35325;DHT22;35135;47.510;19.036;2023-09-12T14:04:46;27.50;46.40
35325;DHT22;35135;47.510;19.036;2023-09-12T14:07:11;27.50;46.10
35325;DHT22;35135;47.510;19.036;2023-09-12T14:09:37;27.50;46.60
35325;DHT22;35135;47.510;19.036;2023-09-12T14:12:03;27.50;46.60
35325;DHT22;35135;47.510;19.036;2023-09-12T14:14:28;27.50;46.30
35325;DHT22;35135;47.510;19.036;2023-09-12T14:16:54;27.60;46.00
35325;DHT22;35135;47.510;19.036;2023-09-12T14:19:20;27.60;46.60
35325;DHT22;35135;47.510;19.036;2023-09-12T14:21:45;27.60;46.10
35325;DHT22;35135;47.510;19.036;2023-09-12T14:24:11;27.60;45.30
35325;DHT22;35135;47.510;19.036;2023-09-12T14:26:37;27.60;46.10
35325;DHT22;35135;47.510;19.036;2023-09-12T14:29:03;27.60;46.00
35325;DHT22;35135;47.510;19.036;2023-09-12T14:31:29;27.60;46.30
35325;DHT22;35135;47.510;19.036;2023-09-12T14:33:54;27.60;45.90
35325;DHT22;35135;47.510;19.036;2023-09-12T14:36:20;27.60;45.70
35325;DHT22;35135;47.510;19.036;2023-09-12T14:38:46;27.60;46.00
35325;DHT22;35135;47.510;19.036;2023-09-12T14:41:12;27.60;46.00
35325;DHT22;35135;47.510;19.036;2023-09-12T14:43:38;27.60;45.90
35325;DHT22;35135;47.510;19.036;2023-09-12T14:46:04;27.60;45.70
35325;DHT22;35135;47.510;19.036;2023-09-12T14:48:31;27.60;45.40
35325;DHT22;35135;47.510;19.036;2023-09-12T14:50:59;27.60;45.50
35325;DHT22;35135;47.510;19.036;2023-09-12T14:53:26;27.60;45.80
35325;DHT22;35135;47.510;19.036;2023-09-12T14:55:53;27.60;45.60
35325;DHT22;35135;47.510;19.036;2023-09-12T14:58:19;27.60;45.70
35325;DHT22;35135;47.510;19.036;2023-09-12T15:00:44;27.60;46.50
35325;DHT22;35135;47.510;19.036;2023-09-12T15:03:10;27.60;45.70
35325;DHT22;35135;47.510;19.036;2023-09-12T15:05:35;27.60;45.90
35325;DHT22;35135;47.510;19.036;2023-09-12T15:08:01;27.60;44.80
35325;DHT22;35135;47.510;19.036;2023-09-12T15:10:28;27.60;45.30
35325;DHT22;35135;47.510;19.036;2023-09-12T15:12:54;27.60;44.60
35325;DHT22;35135;47.510;19.036;2023-09-12T15:15:19;27.60;45.50
35325;DHT22;35135;47.510;19.036;2023-09-12T15:17:45;27.60;45.30
35325;DHT22;35135;47.510;19.036;2023-09-12T15:20:11;27.60;45.30
35325;DHT22;35135;47.510;19.036;2023-09-12T15:22:37;27.60;45.40
35325;DHT22;35135;47.510;19.036;2023-09-12T15:25:03;27.60;45.50
35325;DHT22;35135;47.510;19.036;2023-09-12T15:27:28;27.60;45.40
35325;DHT22;35135;47.510;19.036;2023-09-12T15:29:55;27.60;45.40
35325;DHT22;35135;47.510;19.036;2023-09-12T15:32:20;27.60;45.30